Time;durP1;ratioP1;P1;durP2;ratioP2;P2;SDS_P1;SDS_P2;PMS_P1;PMS_P2;Temp;Humidity;BMP_temperature;BMP_pressure;BME280_temperature;BME280_humidity;BME280_pressure;Samples;Min_cycle;Max_cycle;Signal;HPM_P1;HPM_P2
2022/01/07 00:01:15;;;;;;;25.20;13.33;;;2.60;99.90;;;;;;5061431;28;20214;-41
2022/01/07 00:03:42;;;;;;;26.87;12.10;;;2.60;99.90;;;;;;5057488;28;20228;-43
2022/01/07 00:06:09;;;;;;;32.43;14.20;;;2.60;99.90;;;;;;5056342;28;20214;-41
2022/01/07 00:08:37;;;;;;;27.33;13.43;;;2.60;99.90;;;;;;5056340;28;20883;-41
2022/01/07 00:11:05;;;;;;;26.40;13.80;;;2.60;99.90;;;;;;5059786;28;20191;-43
2022/01/07 00:13:32;;;;;;;28.33;13.33;;;2.60;99.90;;;;;;5057115;28;20203;-44
2022/01/07 00:15:58;;;;;;;26.97;14.47;;;2.60;99.90;;;;;;5058375;28;20252;-47
2022/01/07 00:18:25;;;;;;;27.90;13.87;;;2.60;99.90;;;;;;5054538;28;20216;-41
2022/01/07 00:20:53;;;;;;;29.43;13.23;;;2.60;99.90;;;;;;5063695;28;20191;-41
2022/01/07 00:23:20;;;;;;;34.23;13.50;;;2.60;99.90;;;;;;5042698;28;20221;-43
2022/01/07 00:25:47;;;;;;;26.03;12.97;;;2.60;99.90;;;;;;5058557;28;20941;-44
2022/01/07 00:28:15;;;;;;;22.33;12.23;;;2.60;99.90;;;;;;5042783;28;20656;-43
2022/01/07 00:30:42;;;;;;;26.67;13.27;;;2.60;99.90;;;;;;5048659;28;20209;-42
2022/01/07 00:33:09;;;;;;;31.73;14.33;;;2.60;99.90;;;;;;5050948;28;20250;-42
2022/01/07 00:35:36;;;;;;;27.93;13.30;;;2.60;99.90;;;;;;5050486;28;20202;-45
2022/01/07 00:38:04;;;;;;;26.77;14.23;;;2.60;99.90;;;;;;5045278;28;20562;-41
2022/01/07 00:40:31;;;;;;;33.80;14.47;;;2.60;99.90;;;;;;5050322;28;20285;-42
2022/01/07 00:42:58;;;;;;;31.93;14.07;;;2.60;99.90;;;;;;5057911;28;20223;-42
2022/01/07 00:45:27;;;;;;;28.70;13.90;;;2.60;99.90;;;;;;5050773;28;20210;-42
2022/01/07 00:47:55;;;;;;;20.97;11.60;;;2.60;99.90;;;;;;5059870;28;20206;-44
2022/01/07 00:50:23;;;;;;;25.33;12.50;;;2.60;99.90;;;;;;5054110;28;20862;-42
2022/01/07 00:52:50;;;;;;;28.30;13.33;;;2.60;99.90;;;;;;5055561;28;20215;-43
2022/01/07 00:55:19;;;;;;;26.17;12.50;;;2.70;99.90;;;;;;5042102;28;20211;-41
2022/01/07 00:57:46;;;;;;;22.20;11.97;;;2.70;99.90;;;;;;5060582;28;20187;-40
2022/01/07 01:00:16;;;;;;;25.53;11.40;;;2.70;99.90;;;;;;5050554;28;20214;-40
2022/01/07 01:02:44;;;;;;;27.80;13.30;;;2.70;99.90;;;;;;5042963;28;20718;-42
2022/01/07 01:05:12;;;;;;;44.30;14.17;;;2.70;99.90;;;;;;5049910;28;20691;-41
2022/01/07 01:07:39;;;;;;;21.57;12.90;;;2.70;99.90;;;;;;5059348;28;20447;-39
2022/01/07 01:10:08;;;;;;;29.80;13.57;;;2.70;99.90;;;;;;5034182;28;20221;-40
2022/01/07 01:12:35;;;;;;;23.57;12.00;;;2.70;99.90;;;;;;5058648;28;20179;-43
2022/01/07 01:15:04;;;;;;;23.13;12.23;;;2.70;99.90;;;;;;5057607;28;20194;-42
2022/01/07 01:17:31;;;;;;;26.90;12.10;;;2.70;99.90;;;;;;5053988;28;20985;-40
2022/01/07 01:19:59;;;;;;;27.77;12.63;;;2.70;99.90;;;;;;5058102;28;20207;-45
2022/01/07 01:22:26;;;;;;;24.37;12.33;;;2.70;99.90;;;;;;5050711;28;20286;-41
2022/01/07 01:24:52;;;;;;;23.63;12.10;;;2.70;99.90;;;;;;5044899;28;20199;-43
2022/01/07 01:27:19;;;;;;;30.70;13.20;;;2.70;99.90;;;;;;5042184;28;20214;-42
2022/01/07 01:29:46;;;;;;;26.53;11.10;;;2.70;99.90;;;;;;5060792;28;20199;-41
2022/01/07 01:32:16;;;;;;;28.17;12.23;;;2.70;99.90;;;;;;5041417;28;20285;-41
2022/01/07 01:34:42;;;;;;;21.73;11.07;;;2.70;99.90;;;;;;5052045;28;20643;-42
2022/01/07 01:37:10;;;;;;;20.73;11.07;;;2.70;99.90;;;;;;5051144;28;20211;-41
2022/01/07 01:39:38;;;;;;;26.63;11.10;;;2.70;99.90;;;;;;5056427;28;20210;-42
2022/01/07 01:42:05;;;;;;;23.17;11.50;;;2.70;99.90;;;;;;5043350;28;20210;-40
2022/01/07 01:44:31;;;;;;;21.27;10.93;;;2.70;99.90;;;;;;5055105;28;20206;-41
2022/01/07 01:46:58;;;;;;;29.20;12.63;;;2.70;99.90;;;;;;5044671;28;20593;-41
2022/01/07 01:49:25;;;;;;;22.20;11.37;;;2.70;99.90;;;;;;5046113;28;20698;-39
2022/01/07 01:51:52;;;;;;;23.43;10.50;;;2.70;99.90;;;;;;5044150;28;20203;-40
2022/01/07 01:54:21;;;;;;;21.60;10.70;;;2.70;99.90;;;;;;5051854;28;20223;-43
2022/01/07 01:56:48;;;;;;;23.73;10.50;;;2.70;99.90;;;;;;5046837;28;20291;-40
2022/01/07 01:59:23;;;;;;;18.10;10.13;;;2.70;99.90;;;;;;5041244;28;20206;-43
2022/01/07 02:01:50;;;;;;;20.97;10.93;;;2.70;99.90;;;;;;5054399;28;20206;-46
2022/01/07 02:04:17;;;;;;;18.40;9.27;;;2.70;99.90;;;;;;5051045;28;20219;-43
2022/01/07 02:06:44;;;;;;;15.90;9.47;;;2.70;99.90;;;;;;5061404;28;20203;-42
2022/01/07 02:09:11;;;;;;;28.00;10.23;;;2.70;99.90;;;;;;5040781;28;20286;-41
2022/01/07 02:11:39;;;;;;;19.43;9.20;;;2.80;99.90;;;;;;5050062;28;20191;-44
2022/01/07 02:14:06;;;;;;;16.00;8.57;;;2.80;99.90;;;;;;5039990;28;20302;-47
2022/01/07 02:16:33;;;;;;;20.80;9.10;;;2.80;99.90;;;;;;5053053;28;20214;-41
2022/01/07 02:19:00;;;;;;;20.97;9.17;;;2.80;99.90;;;;;;5056629;28;20192;-43
2022/01/07 02:21:28;;;;;;;21.07;9.53;;;2.80;99.90;;;;;;5060887;28;20190;-41
2022/01/07 02:23:55;;;;;;;21.27;7.93;;;2.80;99.90;;;;;;5056618;28;20227;-41
2022/01/07 02:26:21;;;;;;;20.23;10.00;;;2.80;99.90;;;;;;5047796;28;20237;-40
2022/01/07 02:28:49;;;;;;;19.10;8.00;;;2.80;99.90;;;;;;5048437;28;20211;-44
2022/01/07 02:31:17;;;;;;;22.30;9.33;;;2.90;99.90;;;;;;5053578;28;20271;-43
2022/01/07 02:33:44;;;;;;;16.57;7.53;;;2.90;99.90;;;;;;5058198;28;20222;-44
2022/01/07 02:36:12;;;;;;;16.23;8.23;;;2.90;99.90;;;;;;5057130;28;20194;-42
2022/01/07 02:38:40;;;;;;;15.13;7.93;;;2.90;99.90;;;;;;5055901;28;20278;-43
2022/01/07 02:41:08;;;;;;;21.07;8.70;;;2.90;99.90;;;;;;5047927;28;20202;-40
2022/01/07 02:43:35;;;;;;;15.90;8.33;;;2.90;99.90;;;;;;5045184;28;20499;-41
2022/01/07 02:46:02;;;;;;;18.10;7.53;;;2.90;99.90;;;;;;5052235;28;20768;-41
2022/01/07 02:48:29;;;;;;;14.60;7.63;;;2.90;99.90;;;;;;5052599;28;20264;-40
2022/01/07 02:50:56;;;;;;;18.17;8.50;;;2.90;99.90;;;;;;5057703;28;20203;-41
2022/01/07 02:53:23;;;;;;;17.40;8.43;;;2.90;99.90;;;;;;5059672;28;20207;-42
2022/01/07 02:55:52;;;;;;;18.50;8.63;;;2.90;99.90;;;;;;5042972;28;20207;-42
2022/01/07 02:58:19;;;;;;;16.30;7.60;;;3.00;99.90;;;;;;5049251;28;20191;-40
2022/01/07 03:00:46;;;;;;;14.07;7.27;;;3.00;99.90;;;;;;5051251;28;20305;-42
2022/01/07 03:03:13;;;;;;;14.47;7.03;;;3.00;99.90;;;;;;5057761;28;20223;-41
2022/01/07 03:05:41;;;;;;;15.73;6.50;;;3.00;99.90;;;;;;5063538;28;20217;-39
2022/01/07 03:08:09;;;;;;;15.03;7.27;;;3.00;99.90;;;;;;5063794;28;20722;-42
2022/01/07 03:10:36;;;;;;;16.20;6.10;;;3.00;99.90;;;;;;5056347;28;21947;-41
2022/01/07 03:13:05;;;;;;;19.03;7.13;;;3.00;99.90;;;;;;5065001;28;20218;-40
2022/01/07 03:15:34;;;;;;;15.40;6.30;;;3.00;99.90;;;;;;5050232;28;20213;-42
2022/01/07 03:18:01;;;;;;;13.33;6.57;;;3.00;99.90;;;;;;5064725;28;20195;-42
2022/01/07 03:20:29;;;;;;;12.83;7.00;;;3.00;99.90;;;;;;5043489;28;20202;-42
2022/01/07 03:22:56;;;;;;;14.50;5.83;;;3.00;99.90;;;;;;5064929;28;20249;-42
2022/01/07 03:25:23;;;;;;;11.73;5.80;;;3.00;99.90;;;;;;5059964;28;20967;-41
2022/01/07 03:27:50;;;;;;;14.60;5.50;;;3.00;99.90;;;;;;5051922;28;20271;-46
2022/01/07 03:30:19;;;;;;;22.00;7.23;;;3.10;99.90;;;;;;5047115;28;20241;-40
2022/01/07 03:32:46;;;;;;;10.97;5.50;;;3.10;99.90;;;;;;5057267;28;20293;-42
2022/01/07 03:35:13;;;;;;;8.60;5.13;;;3.10;99.90;;;;;;5057002;28;20203;-42
2022/01/07 03:37:41;;;;;;;13.60;5.80;;;3.10;99.90;;;;;;5055950;28;20183;-41
2022/01/07 03:40:11;;;;;;;11.10;6.17;;;3.10;99.90;;;;;;5057166;28;20195;-41
2022/01/07 03:42:37;;;;;;;14.40;5.80;;;3.10;99.90;;;;;;5042075;28;20195;-46
2022/01/07 03:45:05;;;;;;;12.13;5.20;;;3.10;99.90;;;;;;5046166;28;20566;-43
2022/01/07 03:47:33;;;;;;;10.10;5.13;;;3.10;99.90;;;;;;5040841;28;20803;-41
2022/01/07 03:50:00;;;;;;;9.43;4.23;;;3.10;99.90;;;;;;5053799;28;20581;-43
2022/01/07 03:52:27;;;;;;;16.73;5.47;;;3.10;99.90;;;;;;5055188;28;20207;-42
2022/01/07 03:54:53;;;;;;;12.10;5.20;;;3.10;99.90;;;;;;5051472;28;20212;-43
2022/01/07 03:57:21;;;;;;;10.83;4.20;;;3.20;99.90;;;;;;5052207;28;20748;-43
2022/01/07 03:59:50;;;;;;;15.97;5.67;;;3.10;99.90;;;;;;5048969;28;20190;-41
2022/01/07 04:02:17;;;;;;;7.90;4.77;;;3.20;99.90;;;;;;5049879;28;20273;-44
2022/01/07 04:04:45;;;;;;;10.83;4.90;;;3.20;99.90;;;;;;5052341;28;20754;-43
2022/01/07 04:07:12;;;;;;;6.37;4.33;;;3.20;99.90;;;;;;5050290;28;20226;-47
2022/01/07 04:09:40;;;;;;;11.77;5.03;;;3.20;99.90;;;;;;5053655;28;20182;-42
2022/01/07 04:12:07;;;;;;;10.63;4.33;;;3.20;99.90;;;;;;5061385;28;20655;-43
2022/01/07 04:14:34;;;;;;;7.87;4.50;;;3.20;99.90;;;;;;5053183;28;20945;-42
2022/01/07 04:17:00;;;;;;;12.83;4.50;;;3.20;99.90;;;;;;5053848;28;20253;-43
2022/01/07 04:19:28;;;;;;;10.20;4.87;;;3.30;99.90;;;;;;5042057;28;20290;-42
2022/01/07 04:21:56;;;;;;;8.33;4.70;;;3.20;99.90;;;;;;5050173;28;20281;-44
2022/01/07 04:24:23;;;;;;;8.37;4.23;;;3.20;99.90;;;;;;5055503;28;20311;-41
2022/01/07 04:26:49;;;;;;;4.67;3.40;;;3.20;99.90;;;;;;5063534;28;20222;-42
2022/01/07 04:29:16;;;;;;;8.87;4.17;;;3.10;99.90;;;;;;5047955;28;20206;-43
2022/01/07 04:31:43;;;;;;;9.00;4.43;;;3.10;99.90;;;;;;5054430;28;20194;-44
2022/01/07 04:34:10;;;;;;;7.50;4.33;;;3.00;99.90;;;;;;5036183;28;20225;-42
2022/01/07 04:36:37;;;;;;;7.80;4.37;;;2.90;99.90;;;;;;5054077;28;20525;-40
2022/01/07 04:39:05;;;;;;;7.23;4.40;;;2.80;99.90;;;;;;5053502;28;20691;-42
2022/01/07 04:41:32;;;;;;;8.67;4.20;;;2.70;99.90;;;;;;5053421;28;20199;-42
2022/01/07 04:43:59;;;;;;;12.63;4.73;;;2.60;99.90;;;;;;5046327;28;20238;-41
2022/01/07 04:46:26;;;;;;;14.10;5.13;;;2.50;99.90;;;;;;5051037;28;20221;-42
2022/01/07 04:48:53;;;;;;;17.20;5.17;;;2.50;99.90;;;;;;5061283;28;20209;-41
2022/01/07 04:51:20;;;;;;;13.80;4.90;;;2.40;99.90;;;;;;5040715;28;20667;-40
2022/01/07 04:53:47;;;;;;;10.97;4.70;;;2.40;99.90;;;;;;5060029;28;20249;-40
2022/01/07 04:56:15;;;;;;;13.37;4.87;;;2.30;99.90;;;;;;5060866;28;20199;-42
2022/01/07 04:58:42;;;;;;;11.33;5.37;;;2.30;99.90;;;;;;5052279;28;20198;-44
2022/01/07 05:01:09;;;;;;;12.10;5.20;;;2.20;99.90;;;;;;5051968;28;20203;-46
2022/01/07 05:03:35;;;;;;;13.07;5.47;;;2.20;99.90;;;;;;5051783;28;20280;-41
2022/01/07 05:06:18;;;;;;;13.60;6.17;;;2.10;99.90;;;;;;5050655;28;20573;-42
2022/01/07 05:08:45;;;;;;;10.53;5.30;;;2.00;99.90;;;;;;5049657;28;20225;-42
2022/01/07 05:11:12;;;;;;;14.63;6.37;;;2.00;99.90;;;;;;5060871;28;20553;-46
2022/01/07 05:13:40;;;;;;;20.73;8.43;;;2.00;99.90;;;;;;5051494;28;20199;-41
2022/01/07 05:16:07;;;;;;;35.40;10.87;;;2.00;99.90;;;;;;5047701;28;20203;-40
2022/01/07 05:18:34;;;;;;;29.83;10.17;;;2.00;99.90;;;;;;5043267;28;20183;-39
2022/01/07 05:21:01;;;;;;;12.87;6.90;;;2.00;99.90;;;;;;5043398;28;20207;-41
2022/01/07 05:23:28;;;;;;;13.67;6.20;;;2.00;99.90;;;;;;5051536;28;20218;-39
2022/01/07 05:25:55;;;;;;;15.17;6.20;;;2.00;99.90;;;;;;5062719;28;20190;-39
2022/01/07 05:28:22;;;;;;;14.03;6.73;;;2.00;99.90;;;;;;5053765;28;20276;-41
2022/01/07 05:30:50;;;;;;;21.20;8.27;;;2.10;99.90;;;;;;5050980;28;20210;-40
2022/01/07 05:33:18;;;;;;;13.47;6.37;;;2.10;99.90;;;;;;5048586;28;20234;-42
2022/01/07 05:35:45;;;;;;;13.33;6.57;;;2.10;99.90;;;;;;5036372;28;20260;-41
2022/01/07 05:38:12;;;;;;;12.47;5.20;;;2.10;99.90;;;;;;5054537;28;20187;-41
2022/01/07 05:40:38;;;;;;;12.57;6.37;;;2.10;99.90;;;;;;5044612;28;20195;-42
2022/01/07 05:43:05;;;;;;;10.43;5.33;;;2.10;99.90;;;;;;5058444;28;20706;-43
2022/01/07 05:45:33;;;;;;;13.93;7.17;;;2.10;99.90;;;;;;5051374;28;20206;-43
2022/01/07 05:48:01;;;;;;;20.10;8.07;;;2.10;99.90;;;;;;5049044;28;20261;-42
2022/01/07 05:50:28;;;;;;;20.40;7.53;;;2.10;99.90;;;;;;5038225;28;20255;-43
2022/01/07 05:52:55;;;;;;;19.90;7.07;;;2.10;99.90;;;;;;5052047;28;20219;-41
2022/01/07 05:55:22;;;;;;;16.90;7.30;;;2.10;99.90;;;;;;5046213;28;20312;-46
2022/01/07 05:57:49;;;;;;;14.60;6.60;;;2.10;99.90;;;;;;5051293;28;20256;-41
2022/01/07 06:00:18;;;;;;;13.17;7.37;;;2.10;99.90;;;;;;5063775;28;20576;-44
2022/01/07 06:02:44;;;;;;;18.43;7.77;;;2.10;99.90;;;;;;5060653;28;20215;-42
2022/01/07 06:05:12;;;;;;;13.97;6.80;;;2.10;99.90;;;;;;5057763;28;20214;-41
2022/01/07 06:07:40;;;;;;;12.27;6.63;;;2.10;99.90;;;;;;5060729;28;20237;-42
2022/01/07 06:10:07;;;;;;;15.57;7.20;;;2.10;99.90;;;;;;5056870;28;20611;-43
2022/01/07 06:12:34;;;;;;;13.53;6.83;;;2.10;99.90;;;;;;5047939;28;21742;-43
2022/01/07 06:15:01;;;;;;;24.87;7.70;;;2.10;99.90;;;;;;5056055;28;20210;-41
2022/01/07 06:17:28;;;;;;;12.77;6.47;;;2.10;99.90;;;;;;5044574;28;20207;-42
2022/01/07 06:19:55;;;;;;;9.60;6.17;;;2.10;99.90;;;;;;5053473;28;20203;-40
2022/01/07 06:22:23;;;;;;;16.50;7.60;;;2.10;99.90;;;;;;5036609;28;20203;-38
2022/01/07 06:24:50;;;;;;;14.43;7.30;;;2.10;99.90;;;;;;5049534;28;20616;-38
2022/01/07 06:27:17;;;;;;;14.63;8.23;;;2.10;99.90;;;;;;5049342;28;20225;-38
2022/01/07 06:29:44;;;;;;;16.80;7.77;;;2.10;99.90;;;;;;5058298;28;20373;-40
2022/01/07 06:32:11;;;;;;;11.00;6.70;;;2.20;99.90;;;;;;5051650;28;20186;-38
2022/01/07 06:34:38;;;;;;;15.90;7.23;;;2.10;99.90;;;;;;5053103;28;20591;-39
2022/01/07 06:37:05;;;;;;;11.70;6.63;;;2.20;99.90;;;;;;5038252;28;20199;-40
2022/01/07 06:39:34;;;;;;;12.97;6.93;;;2.20;99.90;;;;;;5064382;28;20198;-39
2022/01/07 06:42:02;;;;;;;12.17;6.60;;;2.20;99.90;;;;;;5052873;28;20198;-38
2022/01/07 06:44:29;;;;;;;14.23;7.53;;;2.20;99.90;;;;;;5049905;28;20219;-38
2022/01/07 06:46:56;;;;;;;27.80;11.03;;;2.20;99.90;;;;;;5053355;28;20211;-39
2022/01/07 06:49:23;;;;;;;11.70;6.87;;;2.20;99.90;;;;;;5057458;28;20557;-40
2022/01/07 06:51:51;;;;;;;16.80;6.80;;;2.20;99.90;;;;;;5055039;28;20675;-39
2022/01/07 06:54:18;;;;;;;13.90;6.67;;;2.20;99.90;;;;;;5046882;28;20715;-38
2022/01/07 06:56:46;;;;;;;15.07;7.37;;;2.20;99.90;;;;;;5052565;28;20199;-39
2022/01/07 06:59:14;;;;;;;10.77;6.70;;;2.20;99.90;;;;;;5048957;28;20672;-43
2022/01/07 07:01:41;;;;;;;8.63;5.63;;;2.20;99.90;;;;;;5057204;28;20190;-39
2022/01/07 07:04:08;;;;;;;8.83;5.93;;;2.20;99.90;;;;;;5058219;28;20218;-38
2022/01/07 07:06:35;;;;;;;9.43;6.50;;;2.20;99.90;;;;;;5050868;28;20218;-38
2022/01/07 07:09:02;;;;;;;11.63;6.60;;;2.10;99.90;;;;;;5047741;28;20293;-39
2022/01/07 07:11:29;;;;;;;20.37;8.67;;;2.10;99.90;;;;;;5059785;28;20208;-39
2022/01/07 07:13:57;;;;;;;12.87;6.47;;;2.10;99.90;;;;;;5048974;28;20227;-39
2022/01/07 07:16:24;;;;;;;27.70;9.80;;;2.10;99.90;;;;;;5048902;28;20211;-39
2022/01/07 07:18:51;;;;;;;17.50;7.77;;;2.10;99.90;;;;;;5052403;28;20201;-39
2022/01/07 07:21:19;;;;;;;16.30;7.17;;;2.10;99.90;;;;;;5059898;28;20273;-39
2022/01/07 07:23:46;;;;;;;10.27;6.10;;;2.10;99.90;;;;;;5049496;28;20218;-39
2022/01/07 07:26:13;;;;;;;21.60;8.93;;;2.10;99.90;;;;;;5047072;28;20722;-39
2022/01/07 07:28:40;;;;;;;13.57;6.63;;;2.10;99.90;;;;;;5052388;28;20305;-39
2022/01/07 07:31:12;;;;;;;14.40;8.13;;;2.10;99.90;;;;;;5051690;28;20207;-39
2022/01/07 07:34:19;;;;;;;10.97;6.30;;;2.10;99.90;;;;;;5060868;28;20226;-39
2022/01/07 07:36:47;;;;;;;8.83;5.13;;;2.10;99.90;;;;;;5057744;28;20221;-39
2022/01/07 07:39:15;;;;;;;7.53;6.20;;;2.10;99.90;;;;;;5047086;28;20206;-41
2022/01/07 07:41:44;;;;;;;12.97;6.90;;;2.10;99.90;;;;;;5052870;28;20277;-39
2022/01/07 07:44:10;;;;;;;9.73;6.30;;;2.10;99.90;;;;;;5054686;28;20606;-39
2022/01/07 07:46:40;;;;;;;17.10;8.33;;;2.10;99.90;;;;;;5052633;28;20298;-39
2022/01/07 07:49:09;;;;;;;12.53;6.50;;;2.10;99.90;;;;;;5053927;28;20229;-39
2022/01/07 07:51:36;;;;;;;15.43;7.90;;;2.20;99.90;;;;;;5042548;28;20579;-39
2022/01/07 07:54:04;;;;;;;9.97;6.77;;;2.20;99.90;;;;;;5043825;28;20766;-39
2022/01/07 07:56:30;;;;;;;11.07;6.37;;;2.20;99.90;;;;;;5054086;28;20202;-39
2022/01/07 07:58:58;;;;;;;20.27;8.93;;;2.20;99.90;;;;;;5050996;28;20198;-39
2022/01/07 08:01:26;;;;;;;8.10;6.37;;;2.20;99.90;;;;;;5053648;28;20285;-39
2022/01/07 08:03:55;;;;;;;12.20;7.33;;;2.20;99.90;;;;;;5054830;28;20211;-39
2022/01/07 08:06:22;;;;;;;26.07;9.77;;;2.20;99.90;;;;;;5047672;28;20286;-39
2022/01/07 08:08:49;;;;;;;9.77;7.63;;;2.20;99.90;;;;;;5046198;28;23165;-39
2022/01/07 08:11:16;;;;;;;15.43;6.67;;;2.30;99.90;;;;;;5059205;28;20206;-39
2022/01/07 08:16:28;;;;;;;17.30;7.50;;;2.30;99.90;;;;;;5050482;28;20569;-40
2022/01/07 08:18:58;;;;;;;18.87;10.43;;;2.30;99.90;;;;;;5044842;28;20195;-39
2022/01/07 08:21:27;;;;;;;14.57;6.70;;;2.30;99.90;;;;;;5051450;28;20193;-38
2022/01/07 08:23:54;;;;;;;17.10;8.33;;;2.30;99.90;;;;;;5043212;28;20226;-37
2022/01/07 08:26:22;;;;;;;23.77;8.97;;;2.30;99.90;;;;;;5045797;28;20699;-37
2022/01/07 08:28:52;;;;;;;14.60;8.07;;;2.30;99.90;;;;;;5046836;28;20219;-38
2022/01/07 08:34:53;;;;;;;13.30;8.17;;;2.30;99.90;;;;;;5051497;28;20226;-37
2022/01/07 08:37:01;;;;;;;32.13;9.90;;;2.30;99.90;;;;;;5052704;28;20197;-37
2022/01/07 08:39:28;;;;;;;16.50;8.53;;;2.30;99.90;;;;;;5047315;28;20218;-37
2022/01/07 08:41:55;;;;;;;24.87;10.20;;;2.30;99.90;;;;;;5046481;28;20198;-37
2022/01/07 08:44:25;;;;;;;26.80;11.00;;;2.40;99.90;;;;;;5056799;28;20214;-37
2022/01/07 08:46:52;;;;;;;23.40;8.93;;;2.40;99.90;;;;;;5045051;28;20282;-37
2022/01/07 08:49:21;;;;;;;22.53;8.83;;;2.40;99.90;;;;;;5050864;28;20210;-37
2022/01/07 08:51:47;;;;;;;32.67;9.27;;;2.30;99.90;;;;;;5051463;28;20186;-37
2022/01/07 08:54:14;;;;;;;20.97;10.03;;;2.30;99.90;;;;;;5049982;28;20226;-37
2022/01/07 08:56:41;;;;;;;19.93;8.70;;;2.30;99.90;;;;;;5041502;28;20291;-37
2022/01/07 08:59:07;;;;;;;13.43;9.70;;;2.30;99.90;;;;;;5053171;28;20202;-37
2022/01/07 09:01:34;;;;;;;10.20;7.30;;;2.20;99.90;;;;;;5054716;28;20316;-38
2022/01/07 09:04:02;;;;;;;11.27;6.90;;;2.20;99.90;;;;;;5054969;28;20246;-37
2022/01/07 09:06:29;;;;;;;8.87;6.20;;;2.10;99.90;;;;;;5063438;28;20198;-37
2022/01/07 09:08:56;;;;;;;10.83;6.50;;;2.10;99.90;;;;;;5052767;28;20207;-38
2022/01/07 09:11:23;;;;;;;7.53;6.07;;;2.10;99.90;;;;;;5041293;28;20203;-38
2022/01/07 09:13:51;;;;;;;8.07;6.47;;;2.10;99.90;;;;;;5045406;28;20210;-38
2022/01/07 09:16:20;;;;;;;11.07;7.23;;;2.00;99.90;;;;;;5048622;28;20190;-38
2022/01/07 09:18:49;;;;;;;22.40;9.77;;;2.00;99.90;;;;;;5048057;28;20698;-38
2022/01/07 09:21:16;;;;;;;13.00;7.97;;;2.00;99.90;;;;;;5049396;28;20293;-38
2022/01/07 09:23:43;;;;;;;10.37;6.57;;;2.00;99.90;;;;;;5059919;28;20240;-38
2022/01/07 09:26:11;;;;;;;14.03;7.00;;;2.00;99.90;;;;;;5054626;28;20199;-38
2022/01/07 09:28:38;;;;;;;11.87;6.63;;;2.00;99.90;;;;;;5052222;28;20214;-38
2022/01/07 09:31:05;;;;;;;19.43;9.60;;;2.00;99.90;;;;;;5060773;28;20200;-38
2022/01/07 09:33:32;;;;;;;9.97;6.77;;;2.00;99.90;;;;;;5058979;28;20233;-38
2022/01/07 09:35:59;;;;;;;15.80;8.43;;;2.00;99.90;;;;;;5057082;28;20194;-38
2022/01/07 09:38:26;;;;;;;17.07;7.97;;;2.00;99.90;;;;;;5060663;28;20191;-38
2022/01/07 09:40:54;;;;;;;11.60;7.97;;;2.00;99.90;;;;;;5060484;28;20509;-38
2022/01/07 09:43:22;;;;;;;14.13;9.17;;;2.00;99.90;;;;;;5050201;28;20226;-38
2022/01/07 09:45:50;;;;;;;17.87;7.43;;;2.00;99.90;;;;;;5055540;28;20192;-38
2022/01/07 09:48:18;;;;;;;25.70;9.93;;;2.00;99.90;;;;;;5061693;28;20219;-38
2022/01/07 09:50:46;;;;;;;16.43;8.63;;;2.00;99.90;;;;;;5059289;28;20237;-38
2022/01/07 09:53:15;;;;;;;12.73;8.67;;;2.00;99.90;;;;;;5053305;28;20222;-38
2022/01/07 09:55:43;;;;;;;13.17;8.20;;;2.00;99.90;;;;;;5048983;28;20285;-38
2022/01/07 09:58:13;;;;;;;31.63;11.57;;;2.00;99.90;;;;;;5043308;28;20620;-38
2022/01/07 10:00:42;;;;;;;14.37;8.33;;;2.00;99.90;;;;;;5059211;28;20198;-39
2022/01/07 10:03:10;;;;;;;16.60;9.17;;;2.10;99.90;;;;;;5052453;28;20618;-38
2022/01/07 10:05:45;;;;;;;8.67;7.77;;;2.10;99.90;;;;;;5058909;28;20191;-38
2022/01/07 10:08:19;;;;;;;42.33;11.20;;;2.10;99.90;;;;;;5061023;28;20285;-38
2022/01/07 10:10:47;;;;;;;13.93;9.07;;;2.10;99.90;;;;;;5057195;28;20204;-39
2022/01/07 10:13:19;;;;;;;14.40;8.80;;;2.10;99.90;;;;;;5043997;28;20230;-38
2022/01/07 10:15:46;;;;;;;14.43;8.70;;;2.10;99.90;;;;;;5056621;28;20277;-38
2022/01/07 10:18:15;;;;;;;27.50;11.20;;;2.10;99.90;;;;;;5057236;28;20194;-38
2022/01/07 10:20:44;;;;;;;39.90;13.70;;;2.10;99.90;;;;;;5057051;28;20183;-38
2022/01/07 10:23:14;;;;;;;12.93;9.13;;;2.10;99.90;;;;;;5051643;28;20218;-38
2022/01/07 10:25:42;;;;;;;11.30;9.00;;;2.10;99.90;;;;;;5054514;28;20244;-38
2022/01/07 10:28:11;;;;;;;34.77;10.97;;;2.10;99.90;;;;;;5053733;28;20218;-38
2022/01/07 10:30:41;;;;;;;14.33;8.80;;;2.10;99.90;;;;;;5047286;28;20210;-38
2022/01/07 10:33:20;;;;;;;22.40;10.20;;;2.20;99.90;;;;;;5055310;28;20222;-38
2022/01/07 10:35:48;;;;;;;17.03;9.60;;;2.20;99.90;;;;;;5054686;28;20221;-38
2022/01/07 10:38:17;;;;;;;13.70;9.03;;;2.20;99.90;;;;;;5057369;28;20187;-39
2022/01/07 10:40:45;;;;;;;19.23;9.03;;;2.20;99.90;;;;;;5048227;28;20765;-38
2022/01/07 10:43:14;;;;;;;24.23;10.33;;;2.20;99.90;;;;;;5050820;28;20223;-38
2022/01/07 10:45:45;;;;;;;28.17;11.93;;;2.30;99.90;;;;;;5041157;28;20229;-39
2022/01/07 10:48:13;;;;;;;21.10;11.70;;;2.30;99.90;;;;;;5056835;28;20223;-38
2022/01/07 10:50:41;;;;;;;21.50;11.40;;;2.30;99.90;;;;;;5051285;28;20731;-39
2022/01/07 10:53:21;;;;;;;20.37;11.13;;;2.40;99.90;;;;;;5052739;28;20718;-38
2022/01/07 10:56:15;;;;;;;36.97;12.53;;;2.40;99.90;;;;;;5050327;28;20199;-39
2022/01/07 10:59:10;;;;;;;29.50;12.23;;;2.40;99.90;;;;;;5056736;28;20175;-38
2022/01/07 11:01:44;;;;;;;22.73;11.90;;;2.40;99.90;;;;;;5039976;28;20218;-38
2022/01/07 11:04:13;;;;;;;33.37;15.03;;;2.40;99.90;;;;;;5058141;28;20230;-38
2022/01/07 11:06:41;;;;;;;35.40;15.07;;;2.40;99.90;;;;;;5048655;28;20985;-38
2022/01/07 11:09:09;;;;;;;16.77;11.10;;;2.40;99.90;;;;;;5055420;28;20229;-39
2022/01/07 11:11:46;;;;;;;23.43;12.73;;;2.50;99.90;;;;;;5048967;28;20191;-38
2022/01/07 11:14:16;;;;;;;26.03;12.90;;;2.50;99.90;;;;;;5062521;28;20305;-39
2022/01/07 11:16:44;;;;;;;16.50;11.40;;;2.50;99.90;;;;;;5048839;28;20207;-38
2022/01/07 11:19:12;;;;;;;66.40;16.67;;;2.60;99.90;;;;;;5053083;28;20203;-39
2022/01/07 11:21:40;;;;;;;20.50;9.67;;;2.60;99.90;;;;;;5044109;28;20199;-38
2022/01/07 11:24:33;;;;;;;20.27;11.70;;;2.60;99.90;;;;;;5053357;28;20215;-38
2022/01/07 11:27:00;;;;;;;32.07;14.00;;;2.70;99.90;;;;;;5050032;28;20196;-39
2022/01/07 11:29:28;;;;;;;22.73;12.83;;;2.60;99.90;;;;;;5056516;28;20210;-39
2022/01/07 11:32:29;;;;;;;20.50;12.27;;;2.70;99.90;;;;;;5043616;28;20248;-39
2022/01/07 11:34:57;;;;;;;22.67;12.67;;;2.70;99.90;;;;;;5059327;28;20210;-44
2022/01/07 11:37:34;;;;;;;34.17;14.73;;;2.80;99.90;;;;;;5052504;28;20198;-41
2022/01/07 11:40:01;;;;;;;27.10;13.20;;;2.80;99.90;;;;;;5053047;28;20199;-41
2022/01/07 11:42:41;;;;;;;40.47;16.40;;;2.80;99.90;;;;;;5052387;28;20198;-42
2022/01/07 11:45:31;;;;;;;31.90;13.30;;;2.90;99.90;;;;;;5045216;28;20194;-42
2022/01/07 11:48:11;;;;;;;29.73;13.60;;;2.90;99.90;;;;;;5053477;28;20209;-42
2022/01/07 11:50:46;;;;;;;35.60;14.60;;;2.90;99.90;;;;;;5047604;28;20189;-41
2022/01/07 11:53:13;;;;;;;31.53;13.97;;;2.90;99.90;;;;;;5052409;28;20915;-42
2022/01/07 11:55:41;;;;;;;28.83;13.43;;;2.90;99.90;;;;;;5058034;28;20201;-44
2022/01/07 11:58:10;;;;;;;36.77;16.40;;;2.90;99.90;;;;;;5056805;28;20196;-41
2022/01/07 12:00:52;;;;;;;48.40;17.77;;;3.00;99.90;;;;;;5045147;28;20217;-43
2022/01/07 12:03:38;;;;;;;46.73;17.77;;;3.00;99.90;;;;;;5054355;28;20217;-44
2022/01/07 12:06:44;;;;;;;45.47;16.93;;;3.00;99.90;;;;;;5050291;28;20260;-43
2022/01/07 12:09:21;;;;;;;57.10;17.13;;;3.00;99.90;;;;;;5052516;28;20219;-42
2022/01/07 12:11:54;;;;;;;31.10;16.37;;;3.10;99.90;;;;;;5051814;28;20194;-44
2022/01/07 12:14:22;;;;;;;45.30;20.60;;;3.10;99.90;;;;;;5044431;28;20826;-44
2022/01/07 12:16:51;;;;;;;30.53;16.23;;;3.10;99.90;;;;;;5045261;28;20744;-43
2022/01/07 12:20:06;;;;;;;39.27;17.17;;;3.10;99.90;;;;;;5056640;28;20190;-42
2022/01/07 12:22:34;;;;;;;27.60;15.30;;;3.20;99.90;;;;;;5047794;28;22875;-42
2022/01/07 12:25:03;;;;;;;25.33;15.43;;;3.20;99.90;;;;;;5052728;28;20206;-44
2022/01/07 12:27:31;;;;;;;29.17;15.67;;;3.30;99.90;;;;;;5058124;28;20187;-42
2022/01/07 12:30:00;;;;;;;24.80;14.77;;;3.30;99.90;;;;;;5054569;28;20215;-44
2022/01/07 12:32:31;;;;;;;42.27;19.37;;;3.30;99.90;;;;;;5049007;28;20217;-42
2022/01/07 12:34:58;;;;;;;24.60;15.40;;;3.30;99.90;;;;;;5054746;28;20213;-44
2022/01/07 12:37:25;;;;;;;26.50;15.60;;;3.30;99.90;;;;;;5056241;28;20197;-44
2022/01/07 12:39:56;;;;;;;34.67;16.93;;;3.40;99.90;;;;;;5053866;28;20210;-43
2022/01/07 12:42:24;;;;;;;39.90;16.63;;;3.40;99.90;;;;;;5052028;28;20287;-42
2022/01/07 12:44:54;;;;;;;30.50;16.63;;;3.40;99.90;;;;;;5047226;28;20571;-42
2022/01/07 12:47:23;;;;;;;34.77;17.30;;;3.40;99.90;;;;;;5040917;28;21635;-42
2022/01/07 12:49:51;;;;;;;40.60;18.70;;;3.40;99.90;;;;;;5054313;28;20221;-42
2022/01/07 12:52:20;;;;;;;27.23;15.63;;;3.50;99.90;;;;;;5052744;28;20190;-42
2022/01/07 12:54:56;;;;;;;36.23;17.57;;;3.50;99.90;;;;;;5046016;28;20931;-41
2022/01/07 12:57:26;;;;;;;40.63;17.37;;;3.50;99.90;;;;;;5057838;28;20194;-43